createdAt,value
2017-07-04T00:00:03.627Z,0
2017-07-04T00:01:05.049Z,0
2017-07-04T00:02:06.470Z,0
2017-07-04T00:03:07.886Z,0
2017-07-04T00:04:09.302Z,0
2017-07-04T00:05:10.721Z,0
2017-07-04T00:06:12.134Z,0
2017-07-04T00:07:13.554Z,0
2017-07-04T00:08:14.969Z,0
2017-07-04T00:09:16.588Z,0
2017-07-04T00:10:18.003Z,0
2017-07-04T00:11:19.424Z,0
2017-07-04T00:12:20.840Z,0
2017-07-04T00:13:22.253Z,0
2017-07-04T00:14:23.674Z,0
2017-07-04T00:15:25.085Z,0
2017-07-04T00:16:26.505Z,0
2017-07-04T00:17:27.925Z,0
2017-07-04T00:18:29.338Z,0
2017-07-04T00:19:30.767Z,0
2017-07-04T00:20:32.183Z,0
2017-07-04T00:21:33.600Z,0
2017-07-04T00:22:35.017Z,0
2017-07-04T00:23:36.434Z,0
2017-07-04T00:24:37.851Z,0
2017-07-04T00:25:39.265Z,0
2017-07-04T00:26:40.682Z,0
2017-07-04T00:27:42.100Z,0
2017-07-04T00:28:43.525Z,0
2017-07-04T00:29:44.935Z,0
2017-07-04T00:30:46.354Z,0
2017-07-04T00:31:47.773Z,0
2017-07-04T00:32:49.189Z,0
2017-07-04T00:33:50.602Z,0
2017-07-04T00:34:52.021Z,0
2017-07-04T00:35:53.436Z,0
2017-07-04T00:36:54.861Z,0
2017-07-04T00:37:56.345Z,0
2017-07-04T00:38:57.763Z,0
2017-07-04T00:39:59.179Z,0
2017-07-04T00:41:00.595Z,0
2017-07-04T00:42:02.017Z,0
2017-07-04T00:43:03.454Z,0
2017-07-04T00:44:04.869Z,0
2017-07-04T00:45:06.283Z,0
2017-07-04T00:46:07.698Z,0
2017-07-04T00:47:09.112Z,0
2017-07-04T00:48:10.531Z,0
2017-07-04T00:49:11.957Z,0
2017-07-04T00:50:13.369Z,0
2017-07-04T00:51:14.788Z,0
2017-07-04T00:52:16.194Z,0
2017-07-04T00:53:17.611Z,0
2017-07-04T00:54:19.028Z,0
2017-07-04T00:55:20.447Z,0
2017-07-04T00:56:21.866Z,0
2017-07-04T00:57:23.282Z,0
2017-07-04T00:58:24.699Z,0
2017-07-04T00:59:26.124Z,0
2017-07-04T01:00:27.550Z,0
2017-07-04T01:01:28.961Z,0
2017-07-04T01:02:30.382Z,0
2017-07-04T01:03:31.796Z,0
2017-07-04T01:04:33.213Z,0
2017-07-04T01:05:34.632Z,0
2017-07-04T01:06:36.050Z,0
2017-07-04T01:07:37.476Z,0
2017-07-04T01:08:38.896Z,0
2017-07-04T01:09:40.317Z,0
2017-07-04T01:10:41.738Z,0
2017-07-04T01:11:43.157Z,0
2017-07-04T01:12:44.573Z,0
2017-07-04T01:13:45.989Z,0
2017-07-04T01:14:47.404Z,0
2017-07-04T01:15:48.823Z,0
2017-07-04T01:16:50.234Z,0
2017-07-04T01:17:51.652Z,0
2017-07-04T01:18:53.070Z,0
2017-07-04T01:19:54.486Z,0
2017-07-04T01:20:55.964Z,0
2017-07-04T01:21:57.351Z,0
2017-07-04T01:22:58.789Z,0
2017-07-04T01:24:00.210Z,0
2017-07-04T01:25:01.627Z,0
2017-07-04T01:26:03.044Z,0
2017-07-04T01:27:04.468Z,0
2017-07-04T01:28:05.887Z,0
2017-07-04T01:29:07.305Z,0
2017-07-04T01:30:08.722Z,0
2017-07-04T01:31:10.165Z,0
2017-07-04T01:32:11.603Z,0
2017-07-04T01:33:13.023Z,0
2017-07-04T01:34:14.438Z,0
2017-07-04T01:35:15.869Z,0
2017-07-04T01:36:17.267Z,0
2017-07-04T01:37:18.686Z,0
2017-07-04T01:38:20.113Z,0
2017-07-04T01:39:21.528Z,0
2017-07-04T01:40:22.948Z,0
2017-07-04T01:41:24.367Z,0
2017-07-04T01:42:25.790Z,0
2017-07-04T01:43:27.217Z,0
2017-07-04T01:44:28.632Z,0
2017-07-04T01:45:30.048Z,0
2017-07-04T01:46:31.469Z,0
2017-07-04T01:47:32.895Z,0
2017-07-04T01:48:34.383Z,0
2017-07-04T01:49:35.805Z,0
2017-07-04T01:50:37.216Z,0
2017-07-04T01:51:38.693Z,0
2017-07-04T01:52:40.113Z,0
2017-07-04T01:53:41.547Z,0
2017-07-04T01:54:42.952Z,0
2017-07-04T01:55:44.362Z,0
2017-07-04T01:56:45.775Z,0
2017-07-04T01:57:47.196Z,0
2017-07-04T01:58:48.608Z,0
2017-07-04T01:59:50.023Z,0
2017-07-04T02:00:51.442Z,0
2017-07-04T02:01:52.856Z,0
2017-07-04T02:02:54.281Z,0
2017-07-04T02:03:55.710Z,0
2017-07-04T02:04:57.128Z,0
2017-07-04T02:05:58.541Z,0
2017-07-04T02:06:59.958Z,0
2017-07-04T02:08:01.379Z,0
2017-07-04T02:09:02.794Z,4
2017-07-04T02:10:04.213Z,4
2017-07-04T02:11:05.636Z,4
2017-07-04T02:12:07.056Z,4
2017-07-04T02:13:08.481Z,4
2017-07-04T02:14:09.897Z,4
2017-07-04T02:15:11.314Z,4
2017-07-04T02:16:12.737Z,4
2017-07-04T02:17:14.148Z,0
2017-07-04T02:18:15.571Z,0
2017-07-04T02:19:16.998Z,0
2017-07-04T02:20:18.417Z,4
2017-07-04T02:21:19.833Z,4
2017-07-04T02:22:21.247Z,4
2017-07-04T02:23:22.664Z,4
2017-07-04T02:24:24.086Z,4
2017-07-04T02:25:25.497Z,4
2017-07-04T02:26:26.939Z,4
2017-07-04T02:27:28.356Z,8
2017-07-04T02:28:29.769Z,4
2017-07-04T02:29:31.190Z,8
2017-07-04T02:30:32.610Z,8
2017-07-04T02:31:34.026Z,12
2017-07-04T02:32:35.440Z,12
2017-07-04T02:33:36.856Z,12
2017-07-04T02:34:38.271Z,12
2017-07-04T02:35:39.688Z,12
2017-07-04T02:36:41.107Z,12
2017-07-04T02:37:42.523Z,20
2017-07-04T02:38:43.938Z,20
2017-07-04T02:39:45.354Z,24
2017-07-04T02:40:46.773Z,28
2017-07-04T02:41:48.196Z,28
2017-07-04T02:42:49.605Z,32
2017-07-04T02:43:51.027Z,36
2017-07-04T02:44:52.443Z,44
2017-07-04T02:45:53.859Z,44
2017-07-04T02:46:55.277Z,52
2017-07-04T02:47:56.758Z,60
2017-07-04T02:48:58.176Z,64
2017-07-04T02:49:59.593Z,72
2017-07-04T02:51:01.017Z,80
2017-07-04T02:52:02.423Z,88
2017-07-04T02:53:03.842Z,92
2017-07-04T02:54:05.259Z,96
2017-07-04T02:55:06.678Z,100
2017-07-04T02:56:08.095Z,104
2017-07-04T02:57:09.515Z,88
2017-07-04T02:58:10.934Z,92
2017-07-04T02:59:12.352Z,100
2017-07-04T03:00:13.773Z,124
2017-07-04T03:01:15.190Z,156
2017-07-04T03:02:16.607Z,188
2017-07-04T03:03:18.023Z,216
2017-07-04T03:04:19.442Z,240
2017-07-04T03:05:20.860Z,280
2017-07-04T03:06:22.280Z,328
2017-07-04T03:07:23.701Z,372
2017-07-04T03:08:25.295Z,420
2017-07-04T03:09:26.722Z,472
2017-07-04T03:10:28.143Z,520
2017-07-04T03:11:29.562Z,568
2017-07-04T03:12:30.982Z,620
2017-07-04T03:13:32.401Z,676
2017-07-04T03:14:33.823Z,740
2017-07-04T03:15:35.244Z,796
2017-07-04T03:16:36.669Z,852
2017-07-04T03:17:38.086Z,912
2017-07-04T03:18:39.505Z,972
2017-07-04T03:19:40.930Z,1024
2017-07-04T03:20:42.351Z,1080
2017-07-04T03:21:43.771Z,1136
2017-07-04T03:22:45.197Z,1188
2017-07-04T03:23:46.614Z,1244
2017-07-04T03:24:48.033Z,1296
2017-07-04T03:25:49.456Z,1364
2017-07-04T03:26:50.880Z,1436
2017-07-04T03:27:52.322Z,1504
2017-07-04T03:28:53.742Z,1552
2017-07-04T03:29:55.161Z,1580
2017-07-04T03:30:56.624Z,1600
2017-07-04T03:31:58.047Z,1656
2017-07-04T03:32:59.465Z,1756
2017-07-04T03:34:00.882Z,1848
2017-07-04T03:35:02.303Z,1916
2017-07-04T03:36:03.725Z,1980
2017-07-04T03:37:05.150Z,2080
2017-07-04T03:38:06.569Z,2172
2017-07-04T03:39:07.988Z,2284
2017-07-04T03:40:09.407Z,2436
2017-07-04T03:41:10.830Z,2616
2017-07-04T03:42:12.261Z,2812
2017-07-04T03:43:13.892Z,3004
2017-07-04T03:44:15.312Z,3196
2017-07-04T03:45:16.730Z,3368
2017-07-04T03:46:18.151Z,3476
2017-07-04T03:47:19.568Z,3508
2017-07-04T03:48:20.989Z,3524
2017-07-04T03:49:22.410Z,3444
2017-07-04T03:50:23.829Z,3332
2017-07-04T03:51:25.247Z,3252
2017-07-04T03:52:26.677Z,3248
2017-07-04T03:53:28.093Z,3280
2017-07-04T03:54:29.534Z,3412
2017-07-04T03:55:30.954Z,3644
2017-07-04T03:56:32.414Z,3920
2017-07-04T03:57:33.795Z,4172
2017-07-04T03:58:35.215Z,4484
2017-07-04T03:59:36.640Z,4772
2017-07-04T04:00:38.056Z,5080
2017-07-04T04:01:39.485Z,5364
2017-07-04T04:02:40.893Z,5560
2017-07-04T04:03:42.327Z,5780
2017-07-04T04:04:43.729Z,6164
2017-07-04T04:05:45.167Z,6336
2017-07-04T04:06:46.585Z,6028
2017-07-04T04:07:48.008Z,5852
2017-07-04T04:08:49.425Z,5408
2017-07-04T04:09:50.867Z,4916
2017-07-04T04:10:52.292Z,4672
2017-07-04T04:11:53.712Z,4300
2017-07-04T04:12:55.128Z,4056
2017-07-04T04:13:56.610Z,3980
2017-07-04T04:14:58.028Z,4120
2017-07-04T04:15:59.449Z,4156
2017-07-04T04:17:00.877Z,4076
2017-07-04T04:18:02.327Z,4368
2017-07-04T04:19:03.788Z,4692
2017-07-04T04:20:05.218Z,4824
2017-07-04T04:21:06.640Z,5056
2017-07-04T04:22:08.305Z,5328
2017-07-04T04:23:09.730Z,5520
2017-07-04T04:24:11.164Z,5820
2017-07-04T04:25:12.581Z,6244
2017-07-04T04:26:14.003Z,6580
2017-07-04T04:27:15.431Z,6824
2017-07-04T04:28:16.853Z,7228
2017-07-04T04:29:18.275Z,7360
2017-07-04T04:30:19.701Z,7380
2017-07-04T04:31:21.143Z,7424
2017-07-04T04:32:22.569Z,7392
2017-07-04T04:33:24.001Z,7356
2017-07-04T04:34:25.411Z,7380
2017-07-04T04:35:26.847Z,7512
2017-07-04T04:36:28.574Z,7656
2017-07-04T04:37:30.003Z,7844
2017-07-04T04:38:31.424Z,8236
2017-07-04T04:39:32.848Z,8928
2017-07-04T04:40:34.267Z,9280
2017-07-04T04:41:35.687Z,9512
2017-07-04T04:42:37.112Z,9628
2017-07-04T04:43:38.692Z,9252
2017-07-04T04:44:40.125Z,8884
2017-07-04T04:45:41.547Z,8580
2017-07-04T04:46:42.971Z,9144
2017-07-04T04:47:44.400Z,10312
2017-07-04T04:48:45.828Z,11628
2017-07-04T04:49:47.261Z,13096
2017-07-04T04:50:48.680Z,14344
2017-07-04T04:51:50.156Z,15112
2017-07-04T04:52:51.583Z,15328
2017-07-04T04:53:53.009Z,15536
2017-07-04T04:54:54.560Z,14964
2017-07-04T04:55:56.010Z,14188
2017-07-04T04:56:57.473Z,13224
2017-07-04T04:57:58.906Z,12640
2017-07-04T04:59:00.336Z,11552
2017-07-04T05:00:01.777Z,12228
2017-07-04T05:01:03.204Z,12412
2017-07-04T05:02:04.623Z,13096
2017-07-04T05:03:06.046Z,13916
2017-07-04T05:04:07.469Z,15100
2017-07-04T05:05:08.895Z,15260
2017-07-04T05:06:10.315Z,14104
2017-07-04T05:07:11.752Z,12540
2017-07-04T05:08:13.176Z,10896
2017-07-04T05:09:14.602Z,11000
2017-07-04T05:10:16.030Z,11180
2017-07-04T05:11:17.444Z,10632
2017-07-04T05:12:18.867Z,9648
2017-07-04T05:13:20.295Z,8420
2017-07-04T05:14:21.714Z,7224
2017-07-04T05:15:23.146Z,7180
2017-07-04T05:16:24.572Z,6892
2017-07-04T05:17:25.990Z,6884
2017-07-04T05:18:27.435Z,7628
2017-07-04T05:19:28.858Z,10472
2017-07-04T05:20:30.289Z,7820
2017-07-04T05:21:31.717Z,8196
2017-07-04T05:22:33.146Z,9056
2017-07-04T05:23:34.572Z,10340
2017-07-04T05:24:35.996Z,12044
2017-07-04T05:25:37.424Z,15368
2017-07-04T05:26:38.846Z,11400
2017-07-04T05:27:40.279Z,10932
2017-07-04T05:28:41.707Z,11320
2017-07-04T05:29:43.135Z,12888
2017-07-04T05:30:44.557Z,15192
2017-07-04T05:31:45.977Z,24960
2017-07-04T05:32:47.432Z,24992
2017-07-04T05:33:48.853Z,28160
2017-07-04T05:34:50.278Z,21568
2017-07-04T05:35:51.712Z,21088
2017-07-04T05:36:53.140Z,26816
2017-07-04T05:37:54.565Z,22432
2017-07-04T05:38:56.034Z,31360
2017-07-04T05:39:57.452Z,28608
2017-07-04T05:40:58.883Z,42464
2017-07-04T05:42:00.319Z,36352
2017-07-04T05:43:01.741Z,45728
2017-07-04T05:44:03.184Z,33184
2017-07-04T05:45:04.610Z,24000
2017-07-04T05:46:06.038Z,35104
2017-07-04T05:47:07.471Z,39648
2017-07-04T05:48:08.911Z,37696
2017-07-04T05:49:10.333Z,41184
2017-07-04T05:50:11.774Z,32128
2017-07-04T05:51:13.203Z,23296
2017-07-04T05:52:14.626Z,24160
2017-07-04T05:53:16.055Z,31712
2017-07-04T05:54:17.491Z,19552
2017-07-04T05:55:18.929Z,20768
2017-07-04T05:56:20.362Z,21824
2017-07-04T05:57:21.797Z,35360
2017-07-04T05:58:23.261Z,22720
2017-07-04T05:59:24.683Z,18144
2017-07-04T06:00:26.118Z,15728
2017-07-04T06:01:27.553Z,15872
2017-07-04T06:02:28.978Z,17760
2017-07-04T06:03:30.414Z,20160
2017-07-04T06:04:31.846Z,23712
2017-07-04T06:05:33.278Z,31936
2017-07-04T06:06:34.718Z,15600
2017-07-04T06:07:36.161Z,14256
2017-07-04T06:08:37.582Z,13912
2017-07-04T06:09:39.009Z,13852
2017-07-04T06:10:40.438Z,12212
2017-07-04T06:11:41.870Z,10388
2017-07-04T06:12:43.307Z,10464
2017-07-04T06:13:44.734Z,11432
2017-07-04T06:14:46.160Z,11524
2017-07-04T06:15:47.585Z,10376
2017-07-04T06:16:49.014Z,10004
2017-07-04T06:17:50.440Z,10128
2017-07-04T06:18:51.866Z,10572
2017-07-04T06:19:53.293Z,11828
2017-07-04T06:20:54.710Z,13664
2017-07-04T06:21:56.185Z,16540
2017-07-04T06:22:57.612Z,19168
2017-07-04T06:23:59.050Z,19520
2017-07-04T06:25:00.510Z,16040
2017-07-04T06:26:01.934Z,15284
2017-07-04T06:27:03.374Z,16564
2017-07-04T06:28:04.830Z,19456
2017-07-04T06:29:06.255Z,22560
2017-07-04T06:30:07.685Z,26176
2017-07-04T06:31:09.127Z,24416
2017-07-04T06:32:10.552Z,22592
2017-07-04T06:33:11.976Z,29408
2017-07-04T06:34:13.413Z,28544
2017-07-04T06:35:14.841Z,42304
2017-07-04T06:36:16.263Z,24064
2017-07-04T06:37:17.696Z,24192
2017-07-04T06:38:19.119Z,26368
2017-07-04T06:39:20.556Z,20512
2017-07-04T06:40:21.992Z,18912
2017-07-04T06:41:23.425Z,17664
2017-07-04T06:42:24.853Z,15060
2017-07-04T06:43:26.279Z,12732
2017-07-04T06:44:27.721Z,12872
2017-07-04T06:45:29.137Z,15576
2017-07-04T06:46:30.637Z,16928
2017-07-04T06:47:32.076Z,19008
2017-07-04T06:48:33.508Z,19872
2017-07-04T06:49:34.978Z,21440
2017-07-04T06:50:36.421Z,21280
2017-07-04T06:51:37.845Z,22720
2017-07-04T06:52:39.276Z,22784
2017-07-04T06:53:40.714Z,22592
2017-07-04T06:54:42.126Z,24576
2017-07-04T06:55:43.557Z,28704
2017-07-04T06:56:44.985Z,36704
2017-07-04T06:57:46.421Z,20288
2017-07-04T06:58:48.174Z,17472
2017-07-04T06:59:49.616Z,14272
2017-07-04T07:00:51.041Z,15316
2017-07-04T07:01:52.549Z,19776
2017-07-04T07:02:54.169Z,24960
2017-07-04T07:03:55.690Z,32384
2017-07-04T07:04:57.196Z,32512
2017-07-04T07:05:58.619Z,29888
2017-07-04T07:07:00.145Z,31392
2017-07-04T07:08:01.604Z,30912
2017-07-04T07:09:03.062Z,51296
2017-07-04T07:10:04.486Z,28864
2017-07-04T07:11:06.030Z,46496
2017-07-04T07:12:07.621Z,33376
2017-07-04T07:13:09.245Z,33856
2017-07-04T07:14:10.771Z,67936
2017-07-04T07:15:12.272Z,64192
2017-07-04T07:16:13.771Z,70912
2017-07-04T07:17:15.400Z,70784
2017-07-04T07:18:17.043Z,45216
2017-07-04T07:19:18.504Z,57280
2017-07-04T07:20:19.984Z,73632
2017-07-04T07:21:21.568Z,72032
2017-07-04T07:22:23.078Z,61632
2017-07-04T07:23:24.790Z,61312
2017-07-04T07:24:26.288Z,68032
2017-07-04T07:25:27.766Z,74272
2017-07-04T07:26:29.197Z,69568
2017-07-04T07:27:30.631Z,72064
2017-07-04T07:28:32.067Z,69920
2017-07-04T07:29:33.492Z,65312
2017-07-04T07:30:38.406Z,65120
2017-07-04T07:31:39.839Z,35072
2017-07-04T07:32:41.275Z,73760
2017-07-04T07:33:42.703Z,75296
2017-07-04T07:34:44.136Z,46656
2017-07-04T07:35:45.567Z,31136
2017-07-04T07:36:46.998Z,34688
2017-07-04T07:37:48.437Z,32000
2017-07-04T07:38:49.877Z,60960
2017-07-04T07:39:51.309Z,40896
2017-07-04T07:40:52.742Z,48736
2017-07-04T07:41:54.177Z,63584
2017-07-04T07:42:55.608Z,24256
2017-07-04T07:43:57.092Z,24224
2017-07-04T07:44:58.537Z,36384
2017-07-04T07:45:59.980Z,86208
2017-07-04T07:47:01.399Z,42496
2017-07-04T07:48:02.832Z,31456
2017-07-04T07:49:04.259Z,34400
2017-07-04T07:50:05.707Z,70496
2017-07-04T07:51:07.140Z,87904
2017-07-04T07:52:08.581Z,49888
2017-07-04T07:53:10.020Z,52256
2017-07-04T07:54:11.470Z,96096
2017-07-04T07:55:12.899Z,74944
2017-07-04T07:56:14.341Z,44640
2017-07-04T07:57:15.789Z,38688
2017-07-04T07:58:17.223Z,34752
2017-07-04T07:59:18.657Z,32960
2017-07-04T08:00:20.267Z,64096
2017-07-04T08:01:21.740Z,29760
2017-07-04T08:02:23.171Z,28512
2017-07-04T08:03:24.627Z,37696
2017-07-04T08:04:26.069Z,44416
2017-07-04T08:05:27.515Z,28384
2017-07-04T08:06:28.946Z,25952
2017-07-04T08:07:30.391Z,22720
2017-07-04T08:08:31.832Z,20416
2017-07-04T08:09:33.267Z,25120
2017-07-04T08:10:34.707Z,26464
2017-07-04T08:11:36.154Z,21344
2017-07-04T08:12:37.580Z,21440
2017-07-04T08:13:39.012Z,33280
2017-07-04T08:14:40.444Z,36608
2017-07-04T08:15:41.875Z,88000
2017-07-04T08:16:43.307Z,61632
2017-07-04T08:17:44.735Z,43648
2017-07-04T08:18:46.171Z,78432
2017-07-04T08:19:47.599Z,88832
2017-07-04T08:20:49.029Z,100608
2017-07-04T08:21:50.466Z,113632
2017-07-04T08:22:51.894Z,66688
2017-07-04T08:23:53.331Z,105536
2017-07-04T08:24:54.769Z,114976
2017-07-04T08:25:56.224Z,111104
2017-07-04T08:26:57.661Z,117824
2017-07-04T08:27:59.095Z,39424
2017-07-04T08:29:00.533Z,109312
2017-07-04T08:30:01.969Z,95616
2017-07-04T08:31:03.418Z,115072
2017-07-04T08:32:04.854Z,30400
2017-07-04T08:33:06.287Z,74592
2017-07-04T08:34:07.725Z,60448
2017-07-04T08:35:09.163Z,36800
2017-07-04T08:36:10.848Z,54112
2017-07-04T08:37:12.282Z,103552
2017-07-04T08:38:13.719Z,98976
2017-07-04T08:39:15.159Z,84224
2017-07-04T08:40:16.601Z,32128
2017-07-04T08:41:18.030Z,24064
2017-07-04T08:42:19.465Z,24000
2017-07-04T08:43:20.902Z,22240
2017-07-04T08:44:22.346Z,21600
2017-07-04T08:45:23.777Z,56064
2017-07-04T08:46:25.312Z,48160
2017-07-04T08:47:26.749Z,50848
2017-07-04T08:48:28.182Z,71040
2017-07-04T08:49:29.620Z,37920
2017-07-04T08:50:31.059Z,89504
2017-07-04T08:51:32.491Z,52480
2017-07-04T08:52:33.928Z,48064
2017-07-04T08:53:35.374Z,94336
2017-07-04T08:54:36.807Z,68960
2017-07-04T08:55:38.242Z,32512
2017-07-04T08:56:39.684Z,41120
2017-07-04T08:57:41.108Z,56224
2017-07-04T08:58:42.551Z,32256
2017-07-04T08:59:43.979Z,29792
2017-07-04T09:00:45.408Z,91520
2017-07-04T09:01:46.837Z,23904
2017-07-04T09:02:48.272Z,21376
2017-07-04T09:03:49.714Z,22400
2017-07-04T09:04:51.144Z,27840
2017-07-04T09:05:52.572Z,29632
2017-07-04T09:06:54.007Z,29600
2017-07-04T09:07:55.452Z,30016
2017-07-04T09:08:56.947Z,27552
2017-07-04T09:09:58.380Z,27840
2017-07-04T09:10:59.810Z,26944
2017-07-04T09:12:01.241Z,26400
2017-07-04T09:13:02.668Z,27200
2017-07-04T09:14:04.103Z,27520
2017-07-04T09:15:05.536Z,28576
2017-07-04T09:16:06.973Z,29248
2017-07-04T09:17:08.412Z,29824
2017-07-04T09:18:09.851Z,29888
2017-07-04T09:19:11.289Z,26944
2017-07-04T09:20:12.716Z,25408
2017-07-04T09:21:14.169Z,23200
2017-07-04T09:22:15.595Z,26016
2017-07-04T09:23:17.033Z,28832
2017-07-04T09:24:18.474Z,28416
2017-07-04T09:25:19.909Z,28224
2017-07-04T09:26:21.366Z,28448
2017-07-04T09:27:22.792Z,30368
2017-07-04T09:28:24.218Z,30848
2017-07-04T09:29:25.646Z,26432
2017-07-04T09:30:27.099Z,23840
2017-07-04T09:31:28.523Z,19968
2017-07-04T09:32:30.080Z,18944
2017-07-04T09:33:31.503Z,20800
2017-07-04T09:34:32.932Z,24448
2017-07-04T09:35:34.374Z,22112
2017-07-04T09:36:35.810Z,27712
2017-07-04T09:37:37.241Z,30368
2017-07-04T09:38:38.677Z,31424
2017-07-04T09:39:40.101Z,28128
2017-07-04T09:40:41.538Z,24928
2017-07-04T09:41:43.096Z,25312
2017-07-04T09:42:44.523Z,28192
2017-07-04T09:43:45.947Z,26112
2017-07-04T09:44:47.492Z,22304
2017-07-04T09:45:48.925Z,24096
2017-07-04T09:46:50.377Z,22656
2017-07-04T09:47:51.811Z,16988
2017-07-04T09:48:53.247Z,19296
2017-07-04T09:49:54.687Z,20960
2017-07-04T09:50:56.121Z,21632
2017-07-04T09:51:57.578Z,22944
2017-07-04T09:52:59.114Z,25280
2017-07-04T09:54:00.546Z,20480
2017-07-04T09:55:01.984Z,17244
2017-07-04T09:56:03.411Z,17336
2017-07-04T09:57:04.837Z,16880
2017-07-04T09:58:06.265Z,17124
2017-07-04T09:59:07.695Z,20608
2017-07-04T10:00:09.126Z,18408
2017-07-04T10:01:10.574Z,18452
2017-07-04T10:02:12.006Z,16628
2017-07-04T10:03:13.439Z,17632
2017-07-04T10:04:14.874Z,19744
2017-07-04T10:05:16.303Z,19424
2017-07-04T10:06:17.733Z,19520
2017-07-04T10:07:19.167Z,23104
2017-07-04T10:08:20.594Z,21888
2017-07-04T10:09:22.033Z,18752
2017-07-04T10:10:23.449Z,16968
2017-07-04T10:11:24.875Z,20608
2017-07-04T10:12:26.310Z,22496
2017-07-04T10:13:27.750Z,19104
2017-07-04T10:14:29.180Z,19296
2017-07-04T10:15:30.609Z,20448
2017-07-04T10:16:32.037Z,21376
2017-07-04T10:17:33.482Z,19200
2017-07-04T10:18:34.912Z,17568
2017-07-04T10:19:36.346Z,17064
2017-07-04T10:20:37.774Z,15740
2017-07-04T10:21:39.216Z,20160
2017-07-04T10:22:40.645Z,21664
2017-07-04T10:23:42.083Z,19968
2017-07-04T10:24:43.511Z,21344
2017-07-04T10:25:44.941Z,20000
2017-07-04T10:26:46.405Z,22720
2017-07-04T10:27:47.801Z,21152
2017-07-04T10:28:49.231Z,20544
2017-07-04T10:29:50.666Z,18304
2017-07-04T10:30:52.099Z,18848
2017-07-04T10:31:53.526Z,19040
2017-07-04T10:32:54.959Z,18912
2017-07-04T10:33:56.409Z,22016
2017-07-04T10:34:57.840Z,21952
2017-07-04T10:35:59.261Z,21344
2017-07-04T10:37:00.692Z,18656
2017-07-04T10:38:02.122Z,16032
2017-07-04T10:39:03.544Z,15776
2017-07-04T10:40:05.001Z,16684
2017-07-04T10:41:06.416Z,17476
2017-07-04T10:42:07.843Z,15176
2017-07-04T10:43:09.274Z,15840
2017-07-04T10:44:10.698Z,17648
2017-07-04T10:45:12.278Z,18096
2017-07-04T10:46:13.716Z,18592
2017-07-04T10:47:15.168Z,14536
2017-07-04T10:48:16.618Z,15956
2017-07-04T10:49:18.073Z,17680
2017-07-04T10:50:19.553Z,16820
2017-07-04T10:51:21.033Z,15508
2017-07-04T10:52:22.479Z,15020
2017-07-04T10:53:23.910Z,14280
2017-07-04T10:54:25.334Z,17472
2017-07-04T10:55:26.861Z,17952
2017-07-04T10:56:28.396Z,15968
2017-07-04T10:57:29.847Z,15112
2017-07-04T10:58:31.340Z,15872
2017-07-04T10:59:32.776Z,15052
2017-07-04T11:00:34.210Z,17316
2017-07-04T11:01:35.654Z,17432
2017-07-04T11:02:37.163Z,20096
2017-07-04T11:03:38.584Z,21312
2017-07-04T11:04:41.022Z,20736
2017-07-04T11:05:42.453Z,20736
2017-07-04T11:06:43.925Z,20320
2017-07-04T11:07:45.315Z,20160
2017-07-04T11:08:46.751Z,20576
2017-07-04T11:09:48.182Z,21376
2017-07-04T11:10:49.611Z,19200
2017-07-04T11:11:51.043Z,17984
2017-07-04T11:12:52.473Z,16440
2017-07-04T11:13:53.911Z,15700
2017-07-04T11:14:55.333Z,15076
2017-07-04T11:15:56.838Z,15416
2017-07-04T11:16:58.261Z,12788
2017-07-04T11:17:59.784Z,10740
2017-07-04T11:19:01.212Z,10732
2017-07-04T11:20:02.660Z,12928
2017-07-04T11:21:04.079Z,11888
2017-07-04T11:22:05.621Z,12208
2017-07-04T11:23:07.045Z,13208
2017-07-04T11:24:08.477Z,13864
2017-07-04T11:25:09.904Z,14424
2017-07-04T11:26:11.338Z,17792
2017-07-04T11:27:12.769Z,21408
2017-07-04T11:28:14.205Z,20576
2017-07-04T11:29:15.634Z,18080
2017-07-04T11:30:17.057Z,17384
2017-07-04T11:31:18.682Z,18464
2017-07-04T11:32:20.107Z,17760
2017-07-04T11:33:21.541Z,16992
2017-07-04T11:34:22.971Z,17568
2017-07-04T11:35:24.403Z,19552
2017-07-04T11:36:25.835Z,18816
2017-07-04T11:37:27.268Z,19168
2017-07-04T11:38:28.693Z,18624
2017-07-04T11:39:30.129Z,16668
2017-07-04T11:40:31.555Z,16232
2017-07-04T11:41:32.999Z,16268
2017-07-04T11:42:34.430Z,18560
2017-07-04T11:43:35.854Z,19008
2017-07-04T11:44:37.283Z,17464
2017-07-04T11:45:38.710Z,18496
2017-07-04T11:46:40.142Z,17856
2017-07-04T11:47:41.569Z,17376
2017-07-04T11:48:42.998Z,17184
2017-07-04T11:49:44.428Z,15660
2017-07-04T11:50:45.856Z,16024
2017-07-04T11:51:47.279Z,15328
2017-07-04T11:52:48.713Z,15276
2017-07-04T11:53:50.141Z,15464
2017-07-04T11:54:51.569Z,16908
2017-07-04T11:55:53.010Z,18080
2017-07-04T11:56:54.439Z,16500
2017-07-04T11:57:55.879Z,15640
2017-07-04T11:58:57.329Z,17060
2017-07-04T11:59:58.755Z,15840
2017-07-04T12:01:00.188Z,15752
2017-07-04T12:02:01.618Z,14892
2017-07-04T12:03:03.056Z,14932
2017-07-04T12:04:04.491Z,15616
2017-07-04T12:05:05.941Z,15820
2017-07-04T12:06:07.360Z,14912
2017-07-04T12:07:08.782Z,15108
2017-07-04T12:08:10.224Z,16040
2017-07-04T12:09:11.658Z,16440
2017-07-04T12:10:13.086Z,14368
2017-07-04T12:11:14.518Z,15744
2017-07-04T12:12:15.946Z,18016
2017-07-04T12:13:17.386Z,18080
2017-07-04T12:14:18.833Z,15312
2017-07-04T12:15:20.270Z,15460
2017-07-04T12:16:21.704Z,18176
2017-07-04T12:17:23.136Z,18688
2017-07-04T12:18:24.570Z,16416
2017-07-04T12:19:25.997Z,15468
2017-07-04T12:20:27.574Z,13936
2017-07-04T12:21:29.009Z,12452
2017-07-04T12:22:30.448Z,11820
2017-07-04T12:23:31.890Z,12544
2017-07-04T12:24:33.324Z,12760
2017-07-04T12:25:34.759Z,12496
2017-07-04T12:26:36.198Z,12268
2017-07-04T12:27:37.636Z,13644
2017-07-04T12:28:39.059Z,13524
2017-07-04T12:29:40.496Z,15516
2017-07-04T12:30:41.936Z,15276
2017-07-04T12:31:43.382Z,13916
2017-07-04T12:32:44.811Z,13044
2017-07-04T12:33:46.243Z,14096
2017-07-04T12:34:47.669Z,14836
2017-07-04T12:35:49.111Z,15304
2017-07-04T12:36:50.541Z,14276
2017-07-04T12:37:51.981Z,13984
2017-07-04T12:38:53.402Z,15292
2017-07-04T12:39:54.838Z,16104
2017-07-04T12:40:56.265Z,16300
2017-07-04T12:41:57.720Z,16040
2017-07-04T12:42:59.146Z,16296
2017-07-04T12:44:00.574Z,16664
2017-07-04T12:45:02.001Z,17760
2017-07-04T12:46:03.425Z,17952
2017-07-04T12:47:04.862Z,18240
2017-07-04T12:48:06.298Z,18688
2017-07-04T12:49:07.724Z,19744
2017-07-04T12:50:09.149Z,19168
2017-07-04T12:51:10.578Z,17632
2017-07-04T12:52:12.007Z,18912
2017-07-04T12:53:13.442Z,19520
2017-07-04T12:54:14.880Z,19008
2017-07-04T12:55:16.318Z,16648
2017-07-04T12:56:17.753Z,15328
2017-07-04T12:57:19.181Z,17536
2017-07-04T12:58:20.622Z,18240
2017-07-04T12:59:22.049Z,18304
2017-07-04T13:00:23.479Z,18912
2017-07-04T13:01:24.930Z,18016
2017-07-04T13:02:26.365Z,16820
2017-07-04T13:03:27.807Z,16772
2017-07-04T13:04:29.239Z,15212
2017-07-04T13:05:30.677Z,14512
2017-07-04T13:06:32.104Z,14664
2017-07-04T13:07:33.532Z,16064
2017-07-04T13:08:34.970Z,16548
2017-07-04T13:09:36.397Z,15844
2017-07-04T13:10:37.831Z,14832
2017-07-04T13:11:39.255Z,13460
2017-07-04T13:12:40.688Z,12316
2017-07-04T13:13:42.115Z,12396
2017-07-04T13:14:43.547Z,11244
2017-07-04T13:15:44.992Z,12260
2017-07-04T13:16:46.433Z,13576
2017-07-04T13:17:47.877Z,14276
2017-07-04T13:18:49.316Z,13716
2017-07-04T13:19:50.750Z,12808
2017-07-04T13:20:52.179Z,12084
2017-07-04T13:21:53.612Z,11044
2017-07-04T13:22:55.042Z,11644
2017-07-04T13:23:56.484Z,12312
2017-07-04T13:24:57.907Z,11280
2017-07-04T13:25:59.332Z,10540
2017-07-04T13:27:00.770Z,12456
2017-07-04T13:28:02.201Z,14652
2017-07-04T13:29:03.633Z,15096
2017-07-04T13:30:05.066Z,16456
2017-07-04T13:31:06.492Z,15184
2017-07-04T13:32:07.933Z,13872
2017-07-04T13:33:09.366Z,13064
2017-07-04T13:34:10.798Z,12728
2017-07-04T13:35:12.228Z,11608
2017-07-04T13:36:13.664Z,10576
2017-07-04T13:37:15.088Z,10480